sensor_id;sensor_type;location;lat;lon;timestamp;pressure;altitude;pressure_sealevel;temperature;humidity
61039;BME280;46919;45.816;3.104;2023-02-05T00:01:55;99792.31;;;6.94;100.00
61039;BME280;46919;45.816;3.104;2023-02-05T00:04:21;99797.38;;;6.97;100.00
61039;BME280;46919;45.816;3.104;2023-02-05T00:06:46;99799.78;;;7.00;100.00
61039;BME280;46919;45.816;3.104;2023-02-05T00:09:11;99801.25;;;6.95;100.00
61039;BME280;46919;45.816;3.104;2023-02-05T00:11:37;99801.25;;;6.95;100.00
61039;BME280;46919;45.816;3.104;2023-02-05T00:14:02;99802.41;;;6.92;100.00
61039;BME280;46919;45.816;3.104;2023-02-05T00:16:28;99803.53;;;6.89;100.00
61039;BME280;46919;45.816;3.104;2023-02-05T00:18:55;99805.38;;;6.89;100.00
61039;BME280;46919;45.816;3.104;2023-02-05T00:21:22;99806.22;;;6.89;100.00
61039;BME280;46919;45.816;3.104;2023-02-05T00:23:48;99808.22;;;6.87;100.00
61039;BME280;46919;45.816;3.104;2023-02-05T00:26:13;99809.94;;;6.88;100.00
61039;BME280;46919;45.816;3.104;2023-02-05T00:28:39;99797.63;;;6.86;100.00
61039;BME280;46919;45.816;3.104;2023-02-05T00:31:10;99806.53;;;6.86;100.00
61039;BME280;46919;45.816;3.104;2023-02-05T00:33:36;99815.44;;;6.87;100.00
61039;BME280;46919;45.816;3.104;2023-02-05T00:36:02;99810.09;;;6.87;100.00
61039;BME280;46919;45.816;3.104;2023-02-05T00:38:28;99810.38;;;6.84;100.00
61039;BME280;46919;45.816;3.104;2023-02-05T00:40:53;99810.53;;;6.82;100.00
61039;BME280;46919;45.816;3.104;2023-02-05T00:43:19;99813.22;;;6.82;100.00
61039;BME280;46919;45.816;3.104;2023-02-05T00:45:44;99811.38;;;6.83;100.00
61039;BME280;46919;45.816;3.104;2023-02-05T00:48:09;99820.56;;;6.80;100.00
61039;BME280;46919;45.816;3.104;2023-02-05T00:50:35;99820.56;;;6.80;100.00
61039;BME280;46919;45.816;3.104;2023-02-05T00:53:01;99816.06;;;6.81;100.00
61039;BME280;46919;45.816;3.104;2023-02-05T00:55:27;99804.44;;;6.80;100.00
61039;BME280;46919;45.816;3.104;2023-02-05T00:57:52;99810.69;;;6.81;100.00
61039;BME280;46919;45.816;3.104;2023-02-05T01:00:18;99806.97;;;6.82;100.00
61039;BME280;46919;45.816;3.104;2023-02-05T01:02:43;99807.13;;;6.80;100.00
61039;BME280;46919;45.816;3.104;2023-02-05T01:05:09;99796.53;;;6.79;100.00
61039;BME280;46919;45.816;3.104;2023-02-05T01:07:35;99796.53;;;6.79;100.00
61039;BME280;46919;45.816;3.104;2023-02-05T01:10:00;99801.22;;;6.77;100.00
61039;BME280;46919;45.816;3.104;2023-02-05T01:12:26;99802.94;;;6.78;100.00
61039;BME280;46919;45.816;3.104;2023-02-05T01:14:51;99809.28;;;6.77;100.00
61039;BME280;46919;45.816;3.104;2023-02-05T01:17:18;99807.63;;;6.76;100.00
61039;BME280;46919;45.816;3.104;2023-02-05T01:19:43;99820.03;;;6.77;100.00
61039;BME280;46919;45.816;3.104;2023-02-05T01:22:09;99816.38;;;6.78;100.00
61039;BME280;46919;45.816;3.104;2023-02-05T01:24:35;99819.22;;;6.76;100.00
61039;BME280;46919;45.816;3.104;2023-02-05T01:27:01;99818.38;;;6.76;100.00
61039;BME280;46919;45.816;3.104;2023-02-05T01:29:26;99812.81;;;6.77;100.00
61039;BME280;46919;45.816;3.104;2023-02-05T01:31:52;99810.31;;;6.76;100.00
61039;BME280;46919;45.816;3.104;2023-02-05T01:34:18;99806.59;;;6.77;100.00
61039;BME280;46919;45.816;3.104;2023-02-05T01:36:44;99809.28;;;6.77;100.00
61039;BME280;46919;45.816;3.104;2023-02-05T01:39:09;99809.28;;;6.77;100.00
61039;BME280;46919;45.816;3.104;2023-02-05T01:41:35;99807.13;;;6.80;100.00
61039;BME280;46919;45.816;3.104;2023-02-05T01:44:20;99811.84;;;6.78;100.00
61039;BME280;46919;45.816;3.104;2023-02-05T01:46:51;99803.91;;;6.77;100.00
61039;BME280;46919;45.816;3.104;2023-02-05T01:49:22;99806.59;;;6.77;100.00
61039;BME280;46919;45.816;3.104;2023-02-05T01:51:50;99802.25;;;6.76;100.00
61039;BME280;46919;45.816;3.104;2023-02-05T01:54:18;99804.94;;;6.76;100.00
61039;BME280;46919;45.816;3.104;2023-02-05T01:57:05;99805.94;;;6.75;100.00
61039;BME280;46919;45.816;3.104;2023-02-05T01:59:34;99807.63;;;6.76;100.00
61039;BME280;46919;45.816;3.104;2023-02-05T02:02:02;99809.28;;;6.77;100.00
61039;BME280;46919;45.816;3.104;2023-02-05T02:07:08;99808.47;;;6.76;100.00
61039;BME280;46919;45.816;3.104;2023-02-05T02:09:35;99811.97;;;6.77;100.00
61039;BME280;46919;45.816;3.104;2023-02-05T02:12:01;99807.44;;;6.77;100.00
61039;BME280;46919;45.816;3.104;2023-02-05T02:14:30;99808.16;;;6.79;100.00
61039;BME280;46919;45.816;3.104;2023-02-05T02:16:57;99804.75;;;6.77;100.00
61039;BME280;46919;45.816;3.104;2023-02-05T02:19:45;99802.41;;;6.74;100.00
61039;BME280;46919;45.816;3.104;2023-02-05T02:25:20;99797.47;;;6.69;100.00
61039;BME280;46919;45.816;3.104;2023-02-05T02:27:53;99803.53;;;6.71;100.00
61039;BME280;46919;45.816;3.104;2023-02-05T02:30:58;99797.34;;;6.71;100.00
61039;BME280;46919;45.816;3.104;2023-02-05T02:36:18;99793.78;;;6.70;100.00
61039;BME280;46919;45.816;3.104;2023-02-05T02:38:54;99797.63;;;6.68;100.00
61039;BME280;46919;45.816;3.104;2023-02-05T02:43:51;99771.91;;;6.65;100.00
61039;BME280;46919;45.816;3.104;2023-02-05T02:46:43;99771.06;;;6.65;100.00
61039;BME280;46919;45.816;3.104;2023-02-05T02:49:21;99766.53;;;6.65;100.00
61039;BME280;46919;45.816;3.104;2023-02-05T02:51:50;99771.22;;;6.63;100.00
61039;BME280;46919;45.816;3.104;2023-02-05T02:54:17;99764.53;;;6.67;100.00
61039;BME280;46919;45.816;3.104;2023-02-05T02:56:47;99766.38;;;6.67;100.00
61039;BME280;46919;45.816;3.104;2023-02-05T02:59:17;99763.84;;;6.65;100.00
61039;BME280;46919;45.816;3.104;2023-02-05T03:01:48;99766.38;;;6.67;100.00
61039;BME280;46919;45.816;3.104;2023-02-05T03:04:18;99770.91;;;6.66;100.00
61039;BME280;46919;45.816;3.104;2023-02-05T03:06:49;99770.19;;;6.64;100.00
61039;BME280;46919;45.816;3.104;2023-02-05T03:09:34;99768.22;;;6.66;100.00
61039;BME280;46919;45.816;3.104;2023-02-05T03:12:03;99763.53;;;6.68;100.00
61039;BME280;46919;45.816;3.104;2023-02-05T03:14:29;99761.31;;;6.64;100.00
61039;BME280;46919;45.816;3.104;2023-02-05T03:16:55;99760.16;;;6.66;100.00
61039;BME280;46919;45.816;3.104;2023-02-05T03:19:21;99766.38;;;6.67;100.00
61039;BME280;46919;45.816;3.104;2023-02-05T03:21:50;99766.38;;;6.67;100.00
61039;BME280;46919;45.816;3.104;2023-02-05T03:24:18;99762.16;;;6.64;100.00
61039;BME280;46919;45.816;3.104;2023-02-05T03:26:44;99761.31;;;6.64;100.00
61039;BME280;46919;45.816;3.104;2023-02-05T03:29:12;99759.47;;;6.64;100.00
61039;BME280;46919;45.816;3.104;2023-02-05T03:53:25;99757.63;;;6.65;100.00
61039;BME280;46919;45.816;3.104;2023-02-05T03:56:16;99750.88;;;6.61;100.00
61039;BME280;46919;45.816;3.104;2023-02-05T03:58:48;99753.19;;;6.56;100.00
61039;BME280;46919;45.816;3.104;2023-02-05T04:01:16;99746.97;;;6.55;100.00
61039;BME280;46919;45.816;3.104;2023-02-05T04:03:42;99742.97;;;6.59;100.00
61039;BME280;46919;45.816;3.104;2023-02-05T04:06:08;99741.28;;;6.58;100.00
61039;BME280;46919;45.816;3.104;2023-02-05T04:08:33;99743.25;;;6.56;100.00
61039;BME280;46919;45.816;3.104;2023-02-05T04:10:58;99743.56;;;6.53;100.00
61039;BME280;46919;45.816;3.104;2023-02-05T04:13:24;99744.13;;;6.57;100.00
61039;BME280;46919;45.816;3.104;2023-02-05T04:15:50;99737.06;;;6.56;100.00
61039;BME280;46919;45.816;3.104;2023-02-05T04:18:16;99735.06;;;6.58;100.00
61039;BME280;46919;45.816;3.104;2023-02-05T04:20:41;99734.06;;;6.59;100.00
61039;BME280;46919;45.816;3.104;2023-02-05T04:23:07;99733.75;;;6.62;100.00
61039;BME280;46919;45.816;3.104;2023-02-05T04:25:32;99736.75;;;6.59;100.00
61039;BME280;46919;45.816;3.104;2023-02-05T04:27:57;99731.38;;;6.59;100.00
61039;BME280;46919;45.816;3.104;2023-02-05T04:30:23;99743.78;;;6.60;100.00
61039;BME280;46919;45.816;3.104;2023-02-05T04:32:48;99747.66;;;6.57;100.00
61039;BME280;46919;45.816;3.104;2023-02-05T04:35:14;99743.25;;;6.56;100.00
61039;BME280;46919;45.816;3.104;2023-02-05T04:37:39;99745.13;;;6.56;100.00
61039;BME280;46919;45.816;3.104;2023-02-05T04:40:05;99734.22;;;6.57;100.00
61039;BME280;46919;45.816;3.104;2023-02-05T04:42:31;99742.28;;;6.57;100.00
61039;BME280;46919;45.816;3.104;2023-02-05T04:44:56;99742.59;;;6.54;100.00
61039;BME280;46919;45.816;3.104;2023-02-05T04:47:22;99738.19;;;6.53;100.00
61039;BME280;46919;45.816;3.104;2023-02-05T04:49:47;99753.63;;;6.51;100.00
61039;BME280;46919;45.816;3.104;2023-02-05T04:52:12;99745.03;;;6.47;100.00
61039;BME280;46919;45.816;3.104;2023-02-05T04:54:38;99740.81;;;6.45;100.00
61039;BME280;46919;45.816;3.104;2023-02-05T04:57:03;99739.09;;;6.44;100.00
61039;BME280;46919;45.816;3.104;2023-02-05T04:59:29;99745.03;;;6.47;100.00
61039;BME280;46919;45.816;3.104;2023-02-05T05:01:56;99745.88;;;6.48;100.00
61039;BME280;46919;45.816;3.104;2023-02-05T05:04:22;99744.91;;;6.49;100.00
61039;BME280;46919;45.816;3.104;2023-02-05T05:06:47;99752.94;;;6.49;100.00
61039;BME280;46919;45.816;3.104;2023-02-05T05:09:12;99752.22;;;6.47;100.00
61039;BME280;46919;45.816;3.104;2023-02-05T05:11:38;99753.25;;;6.46;100.00
61039;BME280;46919;45.816;3.104;2023-02-05T05:14:04;99749.84;;;6.44;100.00
61039;BME280;46919;45.816;3.104;2023-02-05T05:16:29;99735.44;;;6.45;100.00
61039;BME280;46919;45.816;3.104;2023-02-05T05:18:55;99744.47;;;6.44;100.00
61039;BME280;46919;45.816;3.104;2023-02-05T05:21:20;99763.28;;;6.44;100.00
61039;BME280;46919;45.816;3.104;2023-02-05T05:23:46;99767.81;;;6.43;100.00
61039;BME280;46919;45.816;3.104;2023-02-05T05:26:11;99762.31;;;6.45;100.00
61039;BME280;46919;45.816;3.104;2023-02-05T05:28:37;99759.63;;;6.45;100.00
61039;BME280;46919;45.816;3.104;2023-02-05T05:33:32;99764.00;;;6.46;100.00
61039;BME280;46919;45.816;3.104;2023-02-05T05:35:58;99753.09;;;6.47;100.00
61039;BME280;46919;45.816;3.104;2023-02-05T05:38:23;99744.34;;;6.45;100.00
61039;BME280;46919;45.816;3.104;2023-02-05T05:40:48;99748.88;;;6.45;100.00
61039;BME280;46919;45.816;3.104;2023-02-05T05:43:32;99742.81;;;6.43;100.00
61039;BME280;46919;45.816;3.104;2023-02-05T05:46:33;99741.41;;;6.39;100.00
61039;BME280;46919;45.816;3.104;2023-02-05T05:49:01;99741.41;;;6.39;100.00
61039;BME280;46919;45.816;3.104;2023-02-05T05:51:27;99740.59;;;6.38;100.00
61039;BME280;46919;45.816;3.104;2023-02-05T05:53:53;99747.81;;;6.38;100.00
61039;BME280;46919;45.816;3.104;2023-02-05T05:56:19;99752.59;;;6.34;100.00
61039;BME280;46919;45.816;3.104;2023-02-05T05:58:45;99759.16;;;6.31;100.00
61039;BME280;46919;45.816;3.104;2023-02-05T06:01:11;99749.41;;;6.30;100.00
61039;BME280;46919;45.816;3.104;2023-02-05T06:03:37;99763.13;;;6.27;100.00
61039;BME280;46919;45.816;3.104;2023-02-05T06:06:04;99767.81;;;6.25;100.00
61039;BME280;46919;45.816;3.104;2023-02-05T06:08:30;99764.41;;;6.23;100.00
61039;BME280;46919;45.816;3.104;2023-02-05T06:10:56;99779.81;;;6.21;100.00
61039;BME280;46919;45.816;3.104;2023-02-05T06:13:22;99768.94;;;6.23;100.00
61039;BME280;46919;45.816;3.104;2023-02-05T06:15:47;99772.31;;;6.25;100.00
61039;BME280;46919;45.816;3.104;2023-02-05T06:18:14;99778.41;;;6.27;100.00
61039;BME280;46919;45.816;3.104;2023-02-05T06:20:39;99781.09;;;6.27;100.00
61039;BME280;46919;45.816;3.104;2023-02-05T06:23:05;99789.00;;;6.28;100.00
61039;BME280;46919;45.816;3.104;2023-02-05T06:25:30;99796.03;;;6.29;100.00
61039;BME280;46919;45.816;3.104;2023-02-05T06:27:55;99794.06;;;6.31;100.00
61039;BME280;46919;45.816;3.104;2023-02-05T06:30:21;99796.59;;;6.33;100.00
61039;BME280;46919;45.816;3.104;2023-02-05T06:32:47;99799.13;;;6.34;100.00
61039;BME280;46919;45.816;3.104;2023-02-05T06:35:12;99794.75;;;6.33;100.00
61039;BME280;46919;45.816;3.104;2023-02-05T06:37:37;99794.75;;;6.33;100.00
61039;BME280;46919;45.816;3.104;2023-02-05T06:40:03;99793.19;;;6.31;100.00
61039;BME280;46919;45.816;3.104;2023-02-05T06:42:29;99796.03;;;6.29;100.00
61039;BME280;46919;45.816;3.104;2023-02-05T06:44:55;99793.50;;;6.28;100.00
61039;BME280;46919;45.816;3.104;2023-02-05T06:47:20;99794.34;;;6.28;100.00
61039;BME280;46919;45.816;3.104;2023-02-05T06:49:45;99798.03;;;6.27;100.00
61039;BME280;46919;45.816;3.104;2023-02-05T06:52:11;99798.03;;;6.27;100.00
61039;BME280;46919;45.816;3.104;2023-02-05T06:54:36;99809.75;;;6.26;100.00
61039;BME280;46919;45.816;3.104;2023-02-05T06:57:03;99821.22;;;6.28;100.00
61039;BME280;46919;45.816;3.104;2023-02-05T06:59:29;99820.19;;;6.29;100.00
61039;BME280;46919;45.816;3.104;2023-02-05T07:01:54;99820.19;;;6.29;100.00
61039;BME280;46919;45.816;3.104;2023-02-05T07:04:19;99824.88;;;6.27;100.00
61039;BME280;46919;45.816;3.104;2023-02-05T07:06:45;99831.94;;;6.28;100.00
61039;BME280;46919;45.816;3.104;2023-02-05T07:09:10;99833.63;;;6.29;100.00
61039;BME280;46919;45.816;3.104;2023-02-05T07:11:36;99833.63;;;6.29;100.00
61039;BME280;46919;45.816;3.104;2023-02-05T07:14:02;99836.16;;;6.31;100.00
61039;BME280;46919;45.816;3.104;2023-02-05T07:16:28;99846.75;;;6.32;100.00
61039;BME280;46919;45.816;3.104;2023-02-05T07:18:54;99853.13;;;6.31;100.00
61039;BME280;46919;45.816;3.104;2023-02-05T07:21:20;99852.41;;;6.29;100.00
61039;BME280;46919;45.816;3.104;2023-02-05T07:23:45;99858.50;;;6.31;100.00
61039;BME280;46919;45.816;3.104;2023-02-05T07:26:13;99860.47;;;6.29;100.00
61039;BME280;46919;45.816;3.104;2023-02-05T07:28:39;99857.78;;;6.29;100.00
61039;BME280;46919;45.816;3.104;2023-02-05T07:31:06;99864.72;;;6.32;100.00
61039;BME280;46919;45.816;3.104;2023-02-05T07:33:32;99857.34;;;6.34;100.00
61039;BME280;46919;45.816;3.104;2023-02-05T07:36:05;99857.19;;;6.35;100.00
61039;BME280;46919;45.816;3.104;2023-02-05T07:38:31;99862.56;;;6.35;100.00
61039;BME280;46919;45.816;3.104;2023-02-05T07:40:57;99866.66;;;6.40;100.00
61039;BME280;46919;45.816;3.104;2023-02-05T07:43:22;99868.66;;;6.38;100.00
61039;BME280;46919;45.816;3.104;2023-02-05T07:45:58;99873.69;;;6.41;100.00
61039;BME280;46919;45.816;3.104;2023-02-05T07:48:24;99873.00;;;6.39;100.00
61039;BME280;46919;45.816;3.104;2023-02-05T07:50:50;99873.16;;;6.37;100.00
61039;BME280;46919;45.816;3.104;2023-02-05T07:53:16;99872.19;;;6.38;100.00
61039;BME280;46919;45.816;3.104;2023-02-05T07:55:41;99871.66;;;6.34;100.00
61039;BME280;46919;45.816;3.104;2023-02-05T07:58:06;99863.59;;;6.34;100.00
61039;BME280;46919;45.816;3.104;2023-02-05T08:00:32;99880.53;;;6.35;100.00
61039;BME280;46919;45.816;3.104;2023-02-05T08:02:58;99886.44;;;6.39;100.00
61039;BME280;46919;45.816;3.104;2023-02-05T08:05:23;99883.06;;;6.37;100.00
61039;BME280;46919;45.816;3.104;2023-02-05T08:07:48;99889.28;;;6.37;100.00
61039;BME280;46919;45.816;3.104;2023-02-05T08:10:14;99874.03;;;6.38;100.00
61039;BME280;46919;45.816;3.104;2023-02-05T08:12:39;99867.66;;;6.39;100.00
61039;BME280;46919;45.816;3.104;2023-02-05T08:15:05;99873.56;;;6.42;100.00
61039;BME280;46919;45.816;3.104;2023-02-05T08:17:31;99878.78;;;6.44;100.00
61039;BME280;46919;45.816;3.104;2023-02-05T08:19:56;99887.56;;;6.46;100.00
61039;BME280;46919;45.816;3.104;2023-02-05T08:22:24;99888.25;;;6.48;100.00
61039;BME280;46919;45.816;3.104;2023-02-05T08:24:49;99881.88;;;6.49;100.00
61039;BME280;46919;45.816;3.104;2023-02-05T08:27:15;99874.97;;;6.46;100.00
61039;BME280;46919;45.816;3.104;2023-02-05T08:29:40;99876.50;;;6.49;100.00
61039;BME280;46919;45.816;3.104;2023-02-05T08:32:06;99878.19;;;6.50;100.00
61039;BME280;46919;45.816;3.104;2023-02-05T08:34:31;99881.59;;;6.52;100.00
61039;BME280;46919;45.816;3.104;2023-02-05T08:36:58;99884.97;;;6.54;100.00
61039;BME280;46919;45.816;3.104;2023-02-05T08:39:24;99884.66;;;6.57;100.00
61039;BME280;46919;45.816;3.104;2023-02-05T08:41:50;99887.50;;;6.56;100.00
61039;BME280;46919;45.816;3.104;2023-02-05T08:44:15;99892.03;;;6.55;100.00
61039;BME280;46919;45.816;3.104;2023-02-05T08:46:41;99890.03;;;6.57;100.00
61039;BME280;46919;45.816;3.104;2023-02-05T08:49:06;99892.28;;;6.62;100.00
61039;BME280;46919;45.816;3.104;2023-02-05T08:51:31;99896.47;;;6.64;100.00
61039;BME280;46919;45.816;3.104;2023-02-05T08:53:59;99893.78;;;6.64;100.00
61039;BME280;46919;45.816;3.104;2023-02-05T08:56:25;99906.00;;;6.59;100.00
61039;BME280;46919;45.816;3.104;2023-02-05T08:58:50;99895.41;;;6.57;100.00
61039;BME280;46919;45.816;3.104;2023-02-05T09:01:16;99899.47;;;6.61;100.00
61039;BME280;46919;45.816;3.104;2023-02-05T09:03:42;99896.47;;;6.64;100.00
61039;BME280;46919;45.816;3.104;2023-02-05T09:06:12;99891.09;;;6.64;100.00
61039;BME280;46919;45.816;3.104;2023-02-05T09:08:38;99895.94;;;6.61;100.00
61039;BME280;46919;45.816;3.104;2023-02-05T09:11:05;99901.75;;;6.56;100.00
61039;BME280;46919;45.816;3.104;2023-02-05T09:13:30;99883.97;;;6.55;100.00
61039;BME280;46919;45.816;3.104;2023-02-05T09:15:56;99884.41;;;6.50;100.00
61039;BME280;46919;45.816;3.104;2023-02-05T09:18:21;99896.00;;;6.51;100.00
61039;BME280;46919;45.816;3.104;2023-02-05T09:20:47;99895.31;;;6.49;100.00
61039;BME280;46919;45.816;3.104;2023-02-05T09:23:14;99895.31;;;6.49;100.00
61039;BME280;46919;45.816;3.104;2023-02-05T09:25:41;99891.47;;;6.51;100.00
61039;BME280;46919;45.816;3.104;2023-02-05T09:28:08;99888.34;;;6.56;100.00
61039;BME280;46919;45.816;3.104;2023-02-05T09:30:35;99893.09;;;6.62;100.00
61039;BME280;46919;45.816;3.104;2023-02-05T09:33:00;99896.63;;;6.63;100.00
61039;BME280;46919;45.816;3.104;2023-02-05T09:35:26;99904.25;;;6.67;100.00
61039;BME280;46919;45.816;3.104;2023-02-05T09:37:51;99908.63;;;6.68;100.00
61039;BME280;46919;45.816;3.104;2023-02-05T09:40:19;99915.72;;;6.69;100.00
61039;BME280;46919;45.816;3.104;2023-02-05T09:50:46;99922.16;;;6.77;100.00
61039;BME280;46919;45.816;3.104;2023-02-05T09:53:17;99918.19;;;6.81;100.00
61039;BME280;46919;45.816;3.104;2023-02-05T09:55:45;99915.19;;;6.84;100.00
61039;BME280;46919;45.816;3.104;2023-02-05T09:58:15;99918.19;;;6.81;100.00
61039;BME280;46919;45.816;3.104;2023-02-05T10:00:46;99915.13;;;6.76;100.00
61039;BME280;46919;45.816;3.104;2023-02-05T10:03:34;99919.09;;;6.71;100.00
61039;BME280;46919;45.816;3.104;2023-02-05T10:22:28;99926.72;;;6.94;100.00
61039;BME280;46919;45.816;3.104;2023-02-05T10:25:09;99924.34;;;6.91;100.00
61039;BME280;46919;45.816;3.104;2023-02-05T10:28:04;99938.53;;;6.83;100.00
61039;BME280;46919;45.816;3.104;2023-02-05T10:30:29;99932.75;;;6.78;100.00
61039;BME280;46919;45.816;3.104;2023-02-05T10:33:04;99949.63;;;6.70;100.00
61039;BME280;46919;45.816;3.104;2023-02-05T10:35:41;99949.47;;;6.72;100.00
61039;BME280;46919;45.816;3.104;2023-02-05T10:38:19;99946.78;;;6.72;100.00
61039;BME280;46919;45.816;3.104;2023-02-05T10:40:46;99945.22;;;6.79;100.00
61039;BME280;46919;45.816;3.104;2023-02-05T10:43:29;99950.84;;;6.86;100.00
61039;BME280;46919;45.816;3.104;2023-02-05T10:46:00;99949.28;;;6.83;100.00
61039;BME280;46919;45.816;3.104;2023-02-05T10:51:10;99951.56;;;6.78;100.00
61039;BME280;46919;45.816;3.104;2023-02-05T10:53:38;99959.09;;;6.75;100.00
61039;BME280;46919;45.816;3.104;2023-02-05T10:56:05;99951.34;;;6.71;100.00
61039;BME280;46919;45.816;3.104;2023-02-05T11:04:05;99946.06;;;6.80;100.00
61039;BME280;46919;45.816;3.104;2023-02-05T11:06:36;99940.75;;;6.88;100.00
61039;BME280;46919;45.816;3.104;2023-02-05T11:09:02;99925.81;;;7.03;100.00
61039;BME280;46919;45.816;3.104;2023-02-05T11:11:31;99927.16;;;7.17;100.00
61039;BME280;46919;45.816;3.104;2023-02-05T11:14:05;99915.25;;;7.38;100.00
61039;BME280;46919;45.816;3.104;2023-02-05T11:16:42;99916.28;;;7.45;98.31
61039;BME280;46919;45.816;3.104;2023-02-05T11:19:23;99915.06;;;7.57;98.84
61039;BME280;46919;45.816;3.104;2023-02-05T11:24:33;99897.56;;;7.79;96.46
61039;BME280;46919;45.816;3.104;2023-02-05T11:29:44;99905.69;;;7.88;93.98
61039;BME280;46919;45.816;3.104;2023-02-05T11:34:45;99903.81;;;8.06;92.95
61039;BME280;46919;45.816;3.104;2023-02-05T11:37:15;99896.91;;;8.12;91.69
61039;BME280;46919;45.816;3.104;2023-02-05T11:39:41;99901.47;;;8.11;88.38
61039;BME280;46919;45.816;3.104;2023-02-05T11:42:20;99900.63;;;8.11;88.63
61039;BME280;46919;45.816;3.104;2023-02-05T11:44:55;99898.94;;;8.10;87.54
61039;BME280;46919;45.816;3.104;2023-02-05T11:47:27;99892.28;;;7.96;87.29
61039;BME280;46919;45.816;3.104;2023-02-05T11:49:54;99878.25;;;7.84;87.43
61039;BME280;46919;45.816;3.104;2023-02-05T11:52:29;99885.81;;;7.80;88.51
61039;BME280;46919;45.816;3.104;2023-02-05T11:54:57;99887.94;;;7.77;88.92
61039;BME280;46919;45.816;3.104;2023-02-05T11:57:49;99876.66;;;7.73;88.91
61039;BME280;46919;45.816;3.104;2023-02-05T12:00:22;99865.06;;;7.73;88.86
61039;BME280;46919;45.816;3.104;2023-02-05T12:02:48;99869.09;;;7.77;88.73
61039;BME280;46919;45.816;3.104;2023-02-05T12:05:20;99860.72;;;7.80;88.51
61039;BME280;46919;45.816;3.104;2023-02-05T12:13:24;99837.78;;;8.02;82.71
61039;BME280;46919;45.816;3.104;2023-02-05T12:16:04;99836.00;;;8.11;83.17
61039;BME280;46919;45.816;3.104;2023-02-05T12:21:44;99834.22;;;8.28;81.28
61039;BME280;46919;45.816;3.104;2023-02-05T12:27:26;99836.06;;;8.27;79.81
61039;BME280;46919;45.816;3.104;2023-02-05T12:32:39;99834.66;;;8.15;78.89
61039;BME280;46919;45.816;3.104;2023-02-05T12:35:20;99833.47;;;8.09;77.65
61039;BME280;46919;45.816;3.104;2023-02-05T12:37:52;99828.69;;;7.95;77.68
61039;BME280;46919;45.816;3.104;2023-02-05T12:43:08;99822.66;;;8.01;78.63
61039;BME280;46919;45.816;3.104;2023-02-05T12:59:32;99813.03;;;8.33;75.94
61039;BME280;46919;45.816;3.104;2023-02-05T13:07:36;99807.25;;;8.70;74.51
61039;BME280;46919;45.816;3.104;2023-02-05T13:10:16;99791.56;;;8.66;72.17
61039;BME280;46919;45.816;3.104;2023-02-05T13:12:48;99780.94;;;8.56;73.44
61039;BME280;46919;45.816;3.104;2023-02-05T13:18:00;99777.41;;;9.63;71.05
61039;BME280;46919;45.816;3.104;2023-02-05T13:20:32;99755.38;;;9.34;69.82
61039;BME280;46919;45.816;3.104;2023-02-05T13:23:19;99742.03;;;9.24;68.88
61039;BME280;46919;45.816;3.104;2023-02-05T13:26:04;99738.69;;;9.22;69.63
61039;BME280;46919;45.816;3.104;2023-02-05T13:28:53;99728.56;;;9.24;69.04
61039;BME280;46919;45.816;3.104;2023-02-05T13:31:31;99707.00;;;9.16;68.97
61039;BME280;46919;45.816;3.104;2023-02-05T13:34:03;99695.84;;;9.19;69.59
61039;BME280;46919;45.816;3.104;2023-02-05T13:42:02;99723.53;;;9.21;67.40
61039;BME280;46919;45.816;3.104;2023-02-05T13:58:24;99697.34;;;9.38;62.25
61039;BME280;46919;45.816;3.104;2023-02-05T14:00:31;99689.53;;;9.60;60.03
61039;BME280;46919;45.816;3.104;2023-02-05T14:02:58;99682.16;;;9.85;59.73
61039;BME280;46919;45.816;3.104;2023-02-05T14:05:32;99692.19;;;9.68;58.68
61039;BME280;46919;45.816;3.104;2023-02-05T14:07:58;99683.94;;;9.61;59.57
61039;BME280;46919;45.816;3.104;2023-02-05T14:10:45;99687.38;;;9.47;59.34
61039;BME280;46919;45.816;3.104;2023-02-05T14:13:27;99674.97;;;9.69;59.39
61039;BME280;46919;45.816;3.104;2023-02-05T14:15:57;99677.59;;;10.17;58.67
61039;BME280;46919;45.816;3.104;2023-02-05T14:24:53;99672.66;;;9.50;59.39
61039;BME280;46919;45.816;3.104;2023-02-05T14:26:55;99693.66;;;9.15;58.90
61039;BME280;46919;45.816;3.104;2023-02-05T14:32:08;99698.53;;;9.28;58.92
61039;BME280;46919;45.816;3.104;2023-02-05T14:36:59;99675.97;;;10.08;58.07
61039;BME280;46919;45.816;3.104;2023-02-05T14:39:30;99672.72;;;10.12;57.31
61039;BME280;46919;45.816;3.104;2023-02-05T14:42:04;99681.56;;;9.67;58.61
61039;BME280;46919;45.816;3.104;2023-02-05T14:44:37;99681.69;;;9.25;59.44
61039;BME280;46919;45.816;3.104;2023-02-05T14:47:24;99688.81;;;9.02;60.40
61039;BME280;46919;45.816;3.104;2023-02-05T14:49:58;99690.69;;;8.93;60.09
61039;BME280;46919;45.816;3.104;2023-02-05T14:52:36;99683.78;;;8.82;60.64
61039;BME280;46919;45.816;3.104;2023-02-05T14:55:34;99684.22;;;9.19;60.20
61039;BME280;46919;45.816;3.104;2023-02-05T14:58:04;99674.97;;;9.69;59.46
61039;BME280;46919;45.816;3.104;2023-02-05T15:00:40;99688.56;;;9.84;58.01
61039;BME280;46919;45.816;3.104;2023-02-05T15:13:39;99699.09;;;8.65;60.41
61039;BME280;46919;45.816;3.104;2023-02-05T15:18:31;99696.06;;;8.52;60.83
61039;BME280;46919;45.816;3.104;2023-02-05T15:20:58;99686.13;;;8.61;61.19
61039;BME280;46919;45.816;3.104;2023-02-05T15:23:38;99684.75;;;8.89;61.26
61039;BME280;46919;45.816;3.104;2023-02-05T15:26:38;99686.47;;;8.82;60.24
61039;BME280;46919;45.816;3.104;2023-02-05T15:29:11;99686.28;;;8.67;61.63
61039;BME280;46919;45.816;3.104;2023-02-05T15:31:42;99691.00;;;8.57;62.00
61039;BME280;46919;45.816;3.104;2023-02-05T15:34:37;99683.25;;;8.46;62.15
61039;BME280;46919;45.816;3.104;2023-02-05T15:42:29;99685.72;;;8.23;62.96
61039;BME280;46919;45.816;3.104;2023-02-05T15:44:56;99668.06;;;8.20;63.81
61039;BME280;46919;45.816;3.104;2023-02-05T15:47:23;99666.50;;;8.18;63.74
61039;BME280;46919;45.816;3.104;2023-02-05T15:49:55;99661.13;;;8.09;63.45
61039;BME280;46919;45.816;3.104;2023-02-05T15:52:27;99661.44;;;8.06;63.74
61039;BME280;46919;45.816;3.104;2023-02-05T15:54:56;99660.06;;;7.94;64.11
61039;BME280;46919;45.816;3.104;2023-02-05T15:57:26;99654.69;;;7.94;64.46